sensor_id;sensor_type;location;lat;lon;timestamp;P1;durP1;ratioP1;P2;durP2;ratioP2
6551;SDS011;3309;48.708;9.290;2022-10-31T00:01:57;0.60;;;0.60;;
6551;SDS011;3309;48.708;9.290;2022-10-31T00:04:23;0.70;;;0.70;;
6551;SDS011;3309;48.708;9.290;2022-10-31T00:06:48;0.70;;;0.70;;
6551;SDS011;3309;48.708;9.290;2022-10-31T00:09:14;0.70;;;0.70;;
6551;SDS011;3309;48.708;9.290;2022-10-31T00:11:39;0.70;;;0.70;;
6551;SDS011;3309;48.708;9.290;2022-10-31T00:14:05;0.70;;;0.70;;
6551;SDS011;3309;48.708;9.290;2022-10-31T00:16:31;0.63;;;0.63;;
6551;SDS011;3309;48.708;9.290;2022-10-31T00:18:58;0.67;;;0.67;;
6551;SDS011;3309;48.708;9.290;2022-10-31T00:21:25;0.70;;;0.70;;
6551;SDS011;3309;48.708;9.290;2022-10-31T00:23:51;0.70;;;0.70;;
6551;SDS011;3309;48.708;9.290;2022-10-31T00:26:16;0.60;;;0.60;;
6551;SDS011;3309;48.708;9.290;2022-10-31T00:28:43;0.60;;;0.60;;
6551;SDS011;3309;48.708;9.290;2022-10-31T00:31:09;0.60;;;0.60;;
6551;SDS011;3309;48.708;9.290;2022-10-31T00:33:36;0.60;;;0.60;;
6551;SDS011;3309;48.708;9.290;2022-10-31T00:36:03;0.60;;;0.60;;
6551;SDS011;3309;48.708;9.290;2022-10-31T00:38:30;0.70;;;0.70;;
6551;SDS011;3309;48.708;9.290;2022-10-31T00:40:56;0.50;;;0.50;;
6551;SDS011;3309;48.708;9.290;2022-10-31T00:43:22;0.50;;;0.50;;
6551;SDS011;3309;48.708;9.290;2022-10-31T00:45:48;0.63;;;0.63;;
6551;SDS011;3309;48.708;9.290;2022-10-31T00:48:13;0.70;;;0.70;;
6551;SDS011;3309;48.708;9.290;2022-10-31T00:50:39;0.70;;;0.70;;
6551;SDS011;3309;48.708;9.290;2022-10-31T00:53:04;0.70;;;0.70;;
6551;SDS011;3309;48.708;9.290;2022-10-31T00:55:30;0.60;;;0.60;;
6551;SDS011;3309;48.708;9.290;2022-10-31T00:57:56;0.70;;;0.70;;
6551;SDS011;3309;48.708;9.290;2022-10-31T01:00:21;0.60;;;0.60;;
6551;SDS011;3309;48.708;9.290;2022-10-31T01:02:47;0.70;;;0.70;;
6551;SDS011;3309;48.708;9.290;2022-10-31T01:05:13;0.70;;;0.70;;
6551;SDS011;3309;48.708;9.290;2022-10-31T01:07:39;0.70;;;0.70;;
6551;SDS011;3309;48.708;9.290;2022-10-31T01:10:06;0.70;;;0.70;;
6551;SDS011;3309;48.708;9.290;2022-10-31T01:12:36;0.60;;;0.60;;
6551;SDS011;3309;48.708;9.290;2022-10-31T01:15:06;0.60;;;0.60;;
6551;SDS011;3309;48.708;9.290;2022-10-31T01:17:32;0.63;;;0.63;;
6551;SDS011;3309;48.708;9.290;2022-10-31T01:19:58;0.70;;;0.70;;
6551;SDS011;3309;48.708;9.290;2022-10-31T01:22:23;0.60;;;0.60;;
6551;SDS011;3309;48.708;9.290;2022-10-31T01:24:49;0.60;;;0.60;;
6551;SDS011;3309;48.708;9.290;2022-10-31T01:27:14;0.80;;;0.80;;
6551;SDS011;3309;48.708;9.290;2022-10-31T01:29:40;0.70;;;0.70;;
6551;SDS011;3309;48.708;9.290;2022-10-31T01:32:05;0.90;;;0.90;;
6551;SDS011;3309;48.708;9.290;2022-10-31T01:34:31;0.50;;;0.50;;
6551;SDS011;3309;48.708;9.290;2022-10-31T01:36:56;0.63;;;0.63;;
6551;SDS011;3309;48.708;9.290;2022-10-31T01:39:22;0.70;;;0.70;;
6551;SDS011;3309;48.708;9.290;2022-10-31T01:41:49;0.70;;;0.70;;
6551;SDS011;3309;48.708;9.290;2022-10-31T01:46:46;0.70;;;0.70;;
6551;SDS011;3309;48.708;9.290;2022-10-31T01:49:16;0.60;;;0.60;;
6551;SDS011;3309;48.708;9.290;2022-10-31T01:51:52;0.70;;;0.70;;
6551;SDS011;3309;48.708;9.290;2022-10-31T01:54:25;0.60;;;0.60;;
6551;SDS011;3309;48.708;9.290;2022-10-31T01:56:53;0.60;;;0.60;;
6551;SDS011;3309;48.708;9.290;2022-10-31T01:59:21;0.60;;;0.60;;
6551;SDS011;3309;48.708;9.290;2022-10-31T02:01:49;0.60;;;0.60;;
6551;SDS011;3309;48.708;9.290;2022-10-31T02:04:17;0.70;;;0.70;;
6551;SDS011;3309;48.708;9.290;2022-10-31T02:06:48;0.60;;;0.60;;
6551;SDS011;3309;48.708;9.290;2022-10-31T02:09:21;0.60;;;0.60;;
6551;SDS011;3309;48.708;9.290;2022-10-31T02:11:50;0.60;;;0.60;;
6551;SDS011;3309;48.708;9.290;2022-10-31T02:14:17;0.70;;;0.70;;
6551;SDS011;3309;48.708;9.290;2022-10-31T02:16:43;0.70;;;0.70;;
6551;SDS011;3309;48.708;9.290;2022-10-31T02:19:08;0.70;;;0.70;;
6551;SDS011;3309;48.708;9.290;2022-10-31T02:21:44;0.60;;;0.60;;
6551;SDS011;3309;48.708;9.290;2022-10-31T02:27:11;0.77;;;0.77;;
6551;SDS011;3309;48.708;9.290;2022-10-31T02:30:02;0.70;;;0.70;;
6551;SDS011;3309;48.708;9.290;2022-10-31T02:33:04;0.70;;;0.70;;
6551;SDS011;3309;48.708;9.290;2022-10-31T02:35:41;0.60;;;0.60;;
6551;SDS011;3309;48.708;9.290;2022-10-31T02:44:15;0.70;;;0.70;;
6551;SDS011;3309;48.708;9.290;2022-10-31T02:46:58;0.60;;;0.60;;
6551;SDS011;3309;48.708;9.290;2022-10-31T02:49:35;0.67;;;0.67;;
6551;SDS011;3309;48.708;9.290;2022-10-31T02:52:20;0.67;;;0.67;;
6551;SDS011;3309;48.708;9.290;2022-10-31T02:54:48;0.67;;;0.67;;
6551;SDS011;3309;48.708;9.290;2022-10-31T02:57:16;0.60;;;0.60;;
6551;SDS011;3309;48.708;9.290;2022-10-31T02:59:47;0.60;;;0.60;;
6551;SDS011;3309;48.708;9.290;2022-10-31T03:10:58;0.60;;;0.60;;
6551;SDS011;3309;48.708;9.290;2022-10-31T03:16:07;0.50;;;0.50;;
6551;SDS011;3309;48.708;9.290;2022-10-31T03:18:52;0.60;;;0.60;;
6551;SDS011;3309;48.708;9.290;2022-10-31T03:24:08;0.70;;;0.70;;
6551;SDS011;3309;48.708;9.290;2022-10-31T03:26:37;0.60;;;0.60;;
6551;SDS011;3309;48.708;9.290;2022-10-31T03:29:09;0.70;;;0.70;;
6551;SDS011;3309;48.708;9.290;2022-10-31T03:31:43;0.60;;;0.60;;
6551;SDS011;3309;48.708;9.290;2022-10-31T03:34:13;0.57;;;0.57;;
6551;SDS011;3309;48.708;9.290;2022-10-31T03:36:41;0.53;;;0.53;;
6551;SDS011;3309;48.708;9.290;2022-10-31T03:39:10;0.60;;;0.60;;
6551;SDS011;3309;48.708;9.290;2022-10-31T03:41:40;0.60;;;0.60;;
6551;SDS011;3309;48.708;9.290;2022-10-31T03:44:12;0.70;;;0.70;;
6551;SDS011;3309;48.708;9.290;2022-10-31T03:46:41;0.60;;;0.60;;
6551;SDS011;3309;48.708;9.290;2022-10-31T03:49:07;0.77;;;0.77;;
6551;SDS011;3309;48.708;9.290;2022-10-31T03:54:17;0.70;;;0.70;;
6551;SDS011;3309;48.708;9.290;2022-10-31T03:56:55;0.70;;;0.70;;
6551;SDS011;3309;48.708;9.290;2022-10-31T03:59:26;0.67;;;0.67;;
6551;SDS011;3309;48.708;9.290;2022-10-31T04:01:59;0.60;;;0.60;;
6551;SDS011;3309;48.708;9.290;2022-10-31T04:04:28;0.70;;;0.70;;
6551;SDS011;3309;48.708;9.290;2022-10-31T04:06:55;0.60;;;0.60;;
6551;SDS011;3309;48.708;9.290;2022-10-31T04:09:24;0.63;;;0.63;;
6551;SDS011;3309;48.708;9.290;2022-10-31T04:11:52;0.60;;;0.60;;
6551;SDS011;3309;48.708;9.290;2022-10-31T04:14:19;0.70;;;0.70;;
6551;SDS011;3309;48.708;9.290;2022-10-31T04:16:47;0.50;;;0.50;;
6551;SDS011;3309;48.708;9.290;2022-10-31T04:19:12;0.70;;;0.70;;
6551;SDS011;3309;48.708;9.290;2022-10-31T04:21:39;0.70;;;0.70;;
6551;SDS011;3309;48.708;9.290;2022-10-31T04:24:04;0.60;;;0.60;;
6551;SDS011;3309;48.708;9.290;2022-10-31T04:26:30;0.57;;;0.57;;
6551;SDS011;3309;48.708;9.290;2022-10-31T04:28:56;0.60;;;0.60;;
6551;SDS011;3309;48.708;9.290;2022-10-31T04:31:21;0.77;;;0.77;;
6551;SDS011;3309;48.708;9.290;2022-10-31T04:33:47;0.70;;;0.70;;
6551;SDS011;3309;48.708;9.290;2022-10-31T04:36:12;0.70;;;0.70;;
6551;SDS011;3309;48.708;9.290;2022-10-31T04:38:38;0.70;;;0.70;;
6551;SDS011;3309;48.708;9.290;2022-10-31T04:41:03;0.67;;;0.67;;
6551;SDS011;3309;48.708;9.290;2022-10-31T04:43:29;0.60;;;0.60;;
6551;SDS011;3309;48.708;9.290;2022-10-31T04:45:54;0.50;;;0.50;;
6551;SDS011;3309;48.708;9.290;2022-10-31T04:48:20;0.60;;;0.60;;
6551;SDS011;3309;48.708;9.290;2022-10-31T04:50:45;0.57;;;0.57;;
6551;SDS011;3309;48.708;9.290;2022-10-31T04:53:11;0.60;;;0.60;;
6551;SDS011;3309;48.708;9.290;2022-10-31T04:55:36;0.60;;;0.60;;
6551;SDS011;3309;48.708;9.290;2022-10-31T04:58:02;0.57;;;0.57;;
6551;SDS011;3309;48.708;9.290;2022-10-31T05:00:27;0.60;;;0.60;;
6551;SDS011;3309;48.708;9.290;2022-10-31T05:02:54;0.70;;;0.70;;
6551;SDS011;3309;48.708;9.290;2022-10-31T05:05:22;0.70;;;0.70;;
6551;SDS011;3309;48.708;9.290;2022-10-31T05:07:53;0.60;;;0.60;;
6551;SDS011;3309;48.708;9.290;2022-10-31T05:10:20;0.60;;;0.60;;
6551;SDS011;3309;48.708;9.290;2022-10-31T05:12:48;0.70;;;0.70;;
6551;SDS011;3309;48.708;9.290;2022-10-31T05:15:15;0.70;;;0.70;;
6551;SDS011;3309;48.708;9.290;2022-10-31T05:17:42;0.60;;;0.60;;
6551;SDS011;3309;48.708;9.290;2022-10-31T05:20:08;0.70;;;0.70;;
6551;SDS011;3309;48.708;9.290;2022-10-31T05:22:34;0.60;;;0.60;;
6551;SDS011;3309;48.708;9.290;2022-10-31T05:24:59;0.70;;;0.70;;
6551;SDS011;3309;48.708;9.290;2022-10-31T05:27:25;0.50;;;0.50;;
6551;SDS011;3309;48.708;9.290;2022-10-31T05:29:51;0.60;;;0.60;;
6551;SDS011;3309;48.708;9.290;2022-10-31T05:32:17;0.57;;;0.57;;
6551;SDS011;3309;48.708;9.290;2022-10-31T05:34:42;0.60;;;0.60;;
6551;SDS011;3309;48.708;9.290;2022-10-31T05:37:08;0.70;;;0.70;;
6551;SDS011;3309;48.708;9.290;2022-10-31T05:39:33;0.60;;;0.60;;
6551;SDS011;3309;48.708;9.290;2022-10-31T05:42:00;0.70;;;0.70;;
6551;SDS011;3309;48.708;9.290;2022-10-31T05:44:25;0.67;;;0.67;;
6551;SDS011;3309;48.708;9.290;2022-10-31T05:46:51;0.60;;;0.60;;
6551;SDS011;3309;48.708;9.290;2022-10-31T05:49:16;0.60;;;0.60;;
6551;SDS011;3309;48.708;9.290;2022-10-31T05:51:42;0.60;;;0.60;;
6551;SDS011;3309;48.708;9.290;2022-10-31T05:54:08;0.63;;;0.63;;
6551;SDS011;3309;48.708;9.290;2022-10-31T05:56:34;0.60;;;0.60;;
6551;SDS011;3309;48.708;9.290;2022-10-31T05:58:59;0.70;;;0.70;;
6551;SDS011;3309;48.708;9.290;2022-10-31T06:01:25;0.70;;;0.70;;
6551;SDS011;3309;48.708;9.290;2022-10-31T06:03:50;0.70;;;0.70;;
6551;SDS011;3309;48.708;9.290;2022-10-31T06:06:16;0.60;;;0.60;;
6551;SDS011;3309;48.708;9.290;2022-10-31T06:08:41;0.60;;;0.60;;
6551;SDS011;3309;48.708;9.290;2022-10-31T06:11:07;0.60;;;0.60;;
6551;SDS011;3309;48.708;9.290;2022-10-31T06:13:32;0.70;;;0.70;;
6551;SDS011;3309;48.708;9.290;2022-10-31T06:15:58;0.70;;;0.70;;
6551;SDS011;3309;48.708;9.290;2022-10-31T06:18:23;0.60;;;0.60;;
6551;SDS011;3309;48.708;9.290;2022-10-31T06:20:49;0.60;;;0.60;;
6551;SDS011;3309;48.708;9.290;2022-10-31T06:23:15;0.70;;;0.70;;
6551;SDS011;3309;48.708;9.290;2022-10-31T06:25:41;0.60;;;0.60;;
6551;SDS011;3309;48.708;9.290;2022-10-31T06:28:06;0.77;;;0.77;;
6551;SDS011;3309;48.708;9.290;2022-10-31T06:30:32;0.70;;;0.70;;
6551;SDS011;3309;48.708;9.290;2022-10-31T06:33:01;0.60;;;0.60;;
6551;SDS011;3309;48.708;9.290;2022-10-31T06:35:28;0.70;;;0.70;;
6551;SDS011;3309;48.708;9.290;2022-10-31T06:37:54;0.60;;;0.60;;
6551;SDS011;3309;48.708;9.290;2022-10-31T06:40:20;0.60;;;0.60;;
6551;SDS011;3309;48.708;9.290;2022-10-31T06:42:46;0.60;;;0.60;;
6551;SDS011;3309;48.708;9.290;2022-10-31T06:45:11;0.67;;;0.67;;
6551;SDS011;3309;48.708;9.290;2022-10-31T06:47:37;0.80;;;0.80;;
6551;SDS011;3309;48.708;9.290;2022-10-31T06:50:03;0.53;;;0.53;;
6551;SDS011;3309;48.708;9.290;2022-10-31T06:52:28;0.60;;;0.60;;
6551;SDS011;3309;48.708;9.290;2022-10-31T06:54:54;0.57;;;0.57;;
6551;SDS011;3309;48.708;9.290;2022-10-31T06:57:19;0.43;;;0.43;;
6551;SDS011;3309;48.708;9.290;2022-10-31T06:59:45;0.50;;;0.50;;
6551;SDS011;3309;48.708;9.290;2022-10-31T07:02:11;0.60;;;0.60;;
6551;SDS011;3309;48.708;9.290;2022-10-31T07:04:37;0.50;;;0.50;;
6551;SDS011;3309;48.708;9.290;2022-10-31T07:07:02;0.40;;;0.40;;
6551;SDS011;3309;48.708;9.290;2022-10-31T07:09:28;0.40;;;0.40;;
6551;SDS011;3309;48.708;9.290;2022-10-31T07:11:53;0.50;;;0.50;;
6551;SDS011;3309;48.708;9.290;2022-10-31T07:14:19;0.50;;;0.50;;
6551;SDS011;3309;48.708;9.290;2022-10-31T07:16:48;0.50;;;0.50;;
6551;SDS011;3309;48.708;9.290;2022-10-31T07:19:15;0.40;;;0.40;;
6551;SDS011;3309;48.708;9.290;2022-10-31T07:21:41;0.40;;;0.40;;
6551;SDS011;3309;48.708;9.290;2022-10-31T07:24:06;0.40;;;0.40;;
6551;SDS011;3309;48.708;9.290;2022-10-31T07:26:32;0.40;;;0.40;;
6551;SDS011;3309;48.708;9.290;2022-10-31T07:28:57;0.40;;;0.40;;
6551;SDS011;3309;48.708;9.290;2022-10-31T07:31:24;0.40;;;0.40;;
6551;SDS011;3309;48.708;9.290;2022-10-31T07:33:50;0.40;;;0.40;;
6551;SDS011;3309;48.708;9.290;2022-10-31T07:36:15;0.40;;;0.40;;
6551;SDS011;3309;48.708;9.290;2022-10-31T07:38:41;0.40;;;0.40;;
6551;SDS011;3309;48.708;9.290;2022-10-31T07:41:06;0.50;;;0.50;;
6551;SDS011;3309;48.708;9.290;2022-10-31T07:43:32;0.50;;;0.50;;
6551;SDS011;3309;48.708;9.290;2022-10-31T07:45:58;0.40;;;0.40;;
6551;SDS011;3309;48.708;9.290;2022-10-31T07:48:23;0.40;;;0.40;;
6551;SDS011;3309;48.708;9.290;2022-10-31T07:50:49;0.47;;;0.47;;
6551;SDS011;3309;48.708;9.290;2022-10-31T07:53:14;0.60;;;0.60;;
6551;SDS011;3309;48.708;9.290;2022-10-31T07:55:40;0.40;;;0.40;;
6551;SDS011;3309;48.708;9.290;2022-10-31T07:58:07;0.60;;;0.60;;
6551;SDS011;3309;48.708;9.290;2022-10-31T08:00:38;0.50;;;0.50;;
6551;SDS011;3309;48.708;9.290;2022-10-31T08:03:05;0.50;;;0.50;;
6551;SDS011;3309;48.708;9.290;2022-10-31T08:05:33;0.50;;;0.50;;
6551;SDS011;3309;48.708;9.290;2022-10-31T08:07:59;0.63;;;0.63;;
6551;SDS011;3309;48.708;9.290;2022-10-31T08:10:25;0.50;;;0.50;;
6551;SDS011;3309;48.708;9.290;2022-10-31T08:13:02;0.50;;;0.50;;
6551;SDS011;3309;48.708;9.290;2022-10-31T08:15:33;0.50;;;0.50;;
6551;SDS011;3309;48.708;9.290;2022-10-31T08:18:02;0.40;;;0.40;;
6551;SDS011;3309;48.708;9.290;2022-10-31T08:20:27;0.50;;;0.50;;
6551;SDS011;3309;48.708;9.290;2022-10-31T08:22:57;0.50;;;0.50;;
6551;SDS011;3309;48.708;9.290;2022-10-31T08:25:27;0.50;;;0.50;;
6551;SDS011;3309;48.708;9.290;2022-10-31T08:27:54;0.50;;;0.50;;
6551;SDS011;3309;48.708;9.290;2022-10-31T08:30:21;0.40;;;0.40;;
6551;SDS011;3309;48.708;9.290;2022-10-31T08:32:57;0.40;;;0.40;;
6551;SDS011;3309;48.708;9.290;2022-10-31T08:35:23;0.30;;;0.30;;
6551;SDS011;3309;48.708;9.290;2022-10-31T08:37:52;0.40;;;0.40;;
6551;SDS011;3309;48.708;9.290;2022-10-31T08:40:19;0.40;;;0.40;;
6551;SDS011;3309;48.708;9.290;2022-10-31T08:42:45;0.50;;;0.50;;
6551;SDS011;3309;48.708;9.290;2022-10-31T08:45:10;0.60;;;0.60;;
6551;SDS011;3309;48.708;9.290;2022-10-31T08:47:36;0.30;;;0.30;;
6551;SDS011;3309;48.708;9.290;2022-10-31T08:50:01;0.53;;;0.53;;
6551;SDS011;3309;48.708;9.290;2022-10-31T08:52:27;0.50;;;0.50;;
6551;SDS011;3309;48.708;9.290;2022-10-31T08:54:53;0.43;;;0.43;;
6551;SDS011;3309;48.708;9.290;2022-10-31T08:57:18;0.40;;;0.40;;
6551;SDS011;3309;48.708;9.290;2022-10-31T08:59:44;0.53;;;0.53;;
6551;SDS011;3309;48.708;9.290;2022-10-31T09:02:09;0.50;;;0.50;;
6551;SDS011;3309;48.708;9.290;2022-10-31T09:04:34;0.40;;;0.40;;
6551;SDS011;3309;48.708;9.290;2022-10-31T09:07:00;0.50;;;0.50;;
6551;SDS011;3309;48.708;9.290;2022-10-31T09:09:25;0.40;;;0.40;;
6551;SDS011;3309;48.708;9.290;2022-10-31T09:11:51;0.33;;;0.33;;
6551;SDS011;3309;48.708;9.290;2022-10-31T09:14:16;0.40;;;0.40;;
6551;SDS011;3309;48.708;9.290;2022-10-31T09:16:42;0.50;;;0.50;;
6551;SDS011;3309;48.708;9.290;2022-10-31T09:19:07;0.40;;;0.40;;
6551;SDS011;3309;48.708;9.290;2022-10-31T09:21:33;0.40;;;0.40;;
6551;SDS011;3309;48.708;9.290;2022-10-31T09:23:58;0.30;;;0.30;;
6551;SDS011;3309;48.708;9.290;2022-10-31T09:26:24;0.40;;;0.40;;
6551;SDS011;3309;48.708;9.290;2022-10-31T09:28:50;0.40;;;0.40;;
6551;SDS011;3309;48.708;9.290;2022-10-31T09:31:15;0.50;;;0.50;;
6551;SDS011;3309;48.708;9.290;2022-10-31T09:33:41;0.50;;;0.50;;
6551;SDS011;3309;48.708;9.290;2022-10-31T09:36:07;0.30;;;0.30;;
6551;SDS011;3309;48.708;9.290;2022-10-31T09:38:32;0.30;;;0.30;;
6551;SDS011;3309;48.708;9.290;2022-10-31T09:43:54;0.30;;;0.30;;
6551;SDS011;3309;48.708;9.290;2022-10-31T09:52:16;0.30;;;0.30;;
6551;SDS011;3309;48.708;9.290;2022-10-31T09:54:55;0.30;;;0.30;;
6551;SDS011;3309;48.708;9.290;2022-10-31T09:57:38;0.37;;;0.37;;
6551;SDS011;3309;48.708;9.290;2022-10-31T10:00:06;0.30;;;0.30;;
6551;SDS011;3309;48.708;9.290;2022-10-31T10:16:14;0.40;;;0.40;;
6551;SDS011;3309;48.708;9.290;2022-10-31T10:19:26;0.30;;;0.30;;
6551;SDS011;3309;48.708;9.290;2022-10-31T10:28:00;0.40;;;0.40;;
6551;SDS011;3309;48.708;9.290;2022-10-31T10:30:34;0.30;;;0.30;;
6551;SDS011;3309;48.708;9.290;2022-10-31T10:33:09;0.30;;;0.30;;
6551;SDS011;3309;48.708;9.290;2022-10-31T10:35:39;0.40;;;0.40;;
6551;SDS011;3309;48.708;9.290;2022-10-31T10:38:17;0.40;;;0.40;;
6551;SDS011;3309;48.708;9.290;2022-10-31T10:40:51;0.40;;;0.40;;
6551;SDS011;3309;48.708;9.290;2022-10-31T10:52:08;0.30;;;0.30;;
6551;SDS011;3309;48.708;9.290;2022-10-31T10:54:43;0.37;;;0.37;;
6551;SDS011;3309;48.708;9.290;2022-10-31T11:00:23;0.40;;;0.40;;
6551;SDS011;3309;48.708;9.290;2022-10-31T11:02:50;0.40;;;0.40;;
6551;SDS011;3309;48.708;9.290;2022-10-31T11:05:23;0.30;;;0.30;;
6551;SDS011;3309;48.708;9.290;2022-10-31T11:07:49;0.40;;;0.40;;
6551;SDS011;3309;48.708;9.290;2022-10-31T11:10:15;0.30;;;0.30;;
6551;SDS011;3309;48.708;9.290;2022-10-31T11:12:42;0.30;;;0.30;;
6551;SDS011;3309;48.708;9.290;2022-10-31T11:15:28;0.40;;;0.40;;
6551;SDS011;3309;48.708;9.290;2022-10-31T11:17:57;0.40;;;0.40;;
6551;SDS011;3309;48.708;9.290;2022-10-31T11:20:28;0.43;;;0.43;;
6551;SDS011;3309;48.708;9.290;2022-10-31T11:23:15;0.40;;;0.40;;
6551;SDS011;3309;48.708;9.290;2022-10-31T11:25:50;0.40;;;0.40;;
6551;SDS011;3309;48.708;9.290;2022-10-31T11:28:20;0.40;;;0.40;;
6551;SDS011;3309;48.708;9.290;2022-10-31T11:30:53;0.30;;;0.30;;
6551;SDS011;3309;48.708;9.290;2022-10-31T11:33:29;0.40;;;0.40;;
6551;SDS011;3309;48.708;9.290;2022-10-31T11:35:58;0.30;;;0.30;;
6551;SDS011;3309;48.708;9.290;2022-10-31T11:38:39;0.40;;;0.40;;
6551;SDS011;3309;48.708;9.290;2022-10-31T11:41:10;0.40;;;0.40;;
6551;SDS011;3309;48.708;9.290;2022-10-31T11:43:37;0.40;;;0.40;;
6551;SDS011;3309;48.708;9.290;2022-10-31T11:46:15;0.40;;;0.40;;
6551;SDS011;3309;48.708;9.290;2022-10-31T11:48:51;0.40;;;0.40;;
6551;SDS011;3309;48.708;9.290;2022-10-31T11:51:22;0.33;;;0.33;;
6551;SDS011;3309;48.708;9.290;2022-10-31T11:53:52;0.40;;;0.40;;
6551;SDS011;3309;48.708;9.290;2022-10-31T11:56:19;0.30;;;0.30;;
6551;SDS011;3309;48.708;9.290;2022-10-31T11:59:02;0.30;;;0.30;;
6551;SDS011;3309;48.708;9.290;2022-10-31T12:01:30;0.30;;;0.30;;
6551;SDS011;3309;48.708;9.290;2022-10-31T12:04:00;0.40;;;0.40;;
6551;SDS011;3309;48.708;9.290;2022-10-31T12:06:34;0.30;;;0.30;;
6551;SDS011;3309;48.708;9.290;2022-10-31T12:09:01;0.30;;;0.30;;
6551;SDS011;3309;48.708;9.290;2022-10-31T12:17:13;0.33;;;0.33;;
6551;SDS011;3309;48.708;9.290;2022-10-31T12:19:42;0.30;;;0.30;;
6551;SDS011;3309;48.708;9.290;2022-10-31T12:22:34;0.40;;;0.40;;
6551;SDS011;3309;48.708;9.290;2022-10-31T12:25:20;0.37;;;0.37;;
6551;SDS011;3309;48.708;9.290;2022-10-31T12:30:35;0.30;;;0.30;;
6551;SDS011;3309;48.708;9.290;2022-10-31T12:33:26;0.30;;;0.30;;
6551;SDS011;3309;48.708;9.290;2022-10-31T12:38:48;0.30;;;0.30;;
6551;SDS011;3309;48.708;9.290;2022-10-31T12:41:24;0.30;;;0.30;;
6551;SDS011;3309;48.708;9.290;2022-10-31T12:47:00;0.40;;;0.40;;
6551;SDS011;3309;48.708;9.290;2022-10-31T12:52:09;0.40;;;0.40;;
6551;SDS011;3309;48.708;9.290;2022-10-31T13:16:19;0.57;;;0.57;;
6551;SDS011;3309;48.708;9.290;2022-10-31T13:18:48;0.40;;;0.40;;
6551;SDS011;3309;48.708;9.290;2022-10-31T13:21:23;0.30;;;0.30;;
6551;SDS011;3309;48.708;9.290;2022-10-31T13:24:09;0.30;;;0.30;;
6551;SDS011;3309;48.708;9.290;2022-10-31T13:26:47;0.40;;;0.40;;
6551;SDS011;3309;48.708;9.290;2022-10-31T13:29:18;0.40;;;0.40;;
6551;SDS011;3309;48.708;9.290;2022-10-31T13:31:49;0.33;;;0.33;;
6551;SDS011;3309;48.708;9.290;2022-10-31T13:36:53;0.40;;;0.40;;
6551;SDS011;3309;48.708;9.290;2022-10-31T13:39:33;0.40;;;0.40;;
6551;SDS011;3309;48.708;9.290;2022-10-31T13:42:21;0.40;;;0.40;;
6551;SDS011;3309;48.708;9.290;2022-10-31T13:45:06;0.40;;;0.40;;
6551;SDS011;3309;48.708;9.290;2022-10-31T13:47:53;0.30;;;0.30;;
6551;SDS011;3309;48.708;9.290;2022-10-31T13:50:25;0.40;;;0.40;;
6551;SDS011;3309;48.708;9.290;2022-10-31T13:53:03;0.40;;;0.40;;
6551;SDS011;3309;48.708;9.290;2022-10-31T13:55:41;0.30;;;0.30;;
6551;SDS011;3309;48.708;9.290;2022-10-31T13:58:53;0.40;;;0.40;;
6551;SDS011;3309;48.708;9.290;2022-10-31T14:03:35;0.33;;;0.33;;
6551;SDS011;3309;48.708;9.290;2022-10-31T14:06:02;0.40;;;0.40;;
6551;SDS011;3309;48.708;9.290;2022-10-31T14:08:28;0.40;;;0.40;;
6551;SDS011;3309;48.708;9.290;2022-10-31T14:10:59;0.30;;;0.30;;
6551;SDS011;3309;48.708;9.290;2022-10-31T14:13:30;0.40;;;0.40;;
6551;SDS011;3309;48.708;9.290;2022-10-31T14:16:29;0.40;;;0.40;;
6551;SDS011;3309;48.708;9.290;2022-10-31T14:19:06;0.40;;;0.40;;
6551;SDS011;3309;48.708;9.290;2022-10-31T14:21:40;0.30;;;0.30;;
6551;SDS011;3309;48.708;9.290;2022-10-31T14:24:14;0.30;;;0.30;;
6551;SDS011;3309;48.708;9.290;2022-10-31T14:26:53;0.40;;;0.40;;
6551;SDS011;3309;48.708;9.290;2022-10-31T14:29:22;0.30;;;0.30;;
6551;SDS011;3309;48.708;9.290;2022-10-31T14:40:11;0.30;;;0.30;;
6551;SDS011;3309;48.708;9.290;2022-10-31T14:48:39;0.30;;;0.30;;
6551;SDS011;3309;48.708;9.290;2022-10-31T14:51:13;0.30;;;0.30;;
6551;SDS011;3309;48.708;9.290;2022-10-31T14:53:47;0.30;;;0.30;;
6551;SDS011;3309;48.708;9.290;2022-10-31T14:56:30;0.40;;;0.40;;
6551;SDS011;3309;48.708;9.290;2022-10-31T14:59:04;0.37;;;0.37;;
6551;SDS011;3309;48.708;9.290;2022-10-31T15:01:34;0.40;;;0.40;;
6551;SDS011;3309;48.708;9.290;2022-10-31T15:06:50;0.40;;;0.40;;
6551;SDS011;3309;48.708;9.290;2022-10-31T15:09:27;0.30;;;0.30;;
6551;SDS011;3309;48.708;9.290;2022-10-31T15:12:00;0.40;;;0.40;;
6551;SDS011;3309;48.708;9.290;2022-10-31T15:14:39;0.30;;;0.30;;
6551;SDS011;3309;48.708;9.290;2022-10-31T15:17:05;0.40;;;0.40;;
6551;SDS011;3309;48.708;9.290;2022-10-31T15:19:30;0.40;;;0.40;;
6551;SDS011;3309;48.708;9.290;2022-10-31T15:21:59;0.40;;;0.40;;
6551;SDS011;3309;48.708;9.290;2022-10-31T15:24:30;0.40;;;0.40;;
6551;SDS011;3309;48.708;9.290;2022-10-31T15:27:01;0.20;;;0.20;;
6551;SDS011;3309;48.708;9.290;2022-10-31T15:29:27;0.40;;;0.40;;
6551;SDS011;3309;48.708;9.290;2022-10-31T15:31:58;0.40;;;0.40;;
6551;SDS011;3309;48.708;9.290;2022-10-31T15:37:10;0.30;;;0.30;;
6551;SDS011;3309;48.708;9.290;2022-10-31T15:39:38;0.50;;;0.50;;
6551;SDS011;3309;48.708;9.290;2022-10-31T15:42:04;0.30;;;0.30;;
6551;SDS011;3309;48.708;9.290;2022-10-31T15:44:40;0.50;;;0.50;;
6551;SDS011;3309;48.708;9.290;2022-10-31T15:47:13;0.43;;;0.43;;
6551;SDS011;3309;48.708;9.290;2022-10-31T15:52:24;0.40;;;0.40;;
6551;SDS011;3309;48.708;9.290;2022-10-31T15:55:00;0.40;;;0.40;;
6551;SDS011;3309;48.708;9.290;2022-10-31T15:57:28;0.50;;;0.50;;
6551;SDS011;3309;48.708;9.290;2022-10-31T15:59:55;0.50;;;0.50;;
6551;SDS011;3309;48.708;9.290;2022-10-31T16:02:21;0.40;;;0.40;;
6551;SDS011;3309;48.708;9.290;2022-10-31T16:04:59;0.70;;;0.70;;
6551;SDS011;3309;48.708;9.290;2022-10-31T16:07:26;0.60;;;0.60;;
6551;SDS011;3309;48.708;9.290;2022-10-31T16:09:54;0.40;;;0.40;;
6551;SDS011;3309;48.708;9.290;2022-10-31T16:12:22;0.63;;;0.63;;
6551;SDS011;3309;48.708;9.290;2022-10-31T16:14:50;0.50;;;0.50;;
6551;SDS011;3309;48.708;9.290;2022-10-31T16:17:19;0.40;;;0.40;;
6551;SDS011;3309;48.708;9.290;2022-10-31T16:19:52;0.50;;;0.50;;
6551;SDS011;3309;48.708;9.290;2022-10-31T16:22:20;0.50;;;0.50;;
6551;SDS011;3309;48.708;9.290;2022-10-31T16:25:00;0.60;;;0.60;;
6551;SDS011;3309;48.708;9.290;2022-10-31T16:27:31;0.60;;;0.60;;
6551;SDS011;3309;48.708;9.290;2022-10-31T16:30:00;0.50;;;0.50;;
6551;SDS011;3309;48.708;9.290;2022-10-31T16:34:57;0.60;;;0.60;;
6551;SDS011;3309;48.708;9.290;2022-10-31T16:37:38;0.50;;;0.50;;
6551;SDS011;3309;48.708;9.290;2022-10-31T16:40:04;0.60;;;0.60;;
6551;SDS011;3309;48.708;9.290;2022-10-31T16:42:31;0.63;;;0.63;;
6551;SDS011;3309;48.708;9.290;2022-10-31T16:44:57;0.70;;;0.70;;
6551;SDS011;3309;48.708;9.290;2022-10-31T16:47:24;0.50;;;0.50;;
6551;SDS011;3309;48.708;9.290;2022-10-31T16:49:49;0.50;;;0.50;;
6551;SDS011;3309;48.708;9.290;2022-10-31T16:52:15;0.50;;;0.50;;
6551;SDS011;3309;48.708;9.290;2022-10-31T16:54:42;0.50;;;0.50;;
6551;SDS011;3309;48.708;9.290;2022-10-31T16:57:10;0.57;;;0.57;;
6551;SDS011;3309;48.708;9.290;2022-10-31T16:59:39;0.60;;;0.60;;
6551;SDS011;3309;48.708;9.290;2022-10-31T17:02:05;0.60;;;0.60;;
6551;SDS011;3309;48.708;9.290;2022-10-31T17:04:39;0.50;;;0.50;;
6551;SDS011;3309;48.708;9.290;2022-10-31T17:07:05;0.40;;;0.40;;
6551;SDS011;3309;48.708;9.290;2022-10-31T17:09:30;0.60;;;0.60;;
6551;SDS011;3309;48.708;9.290;2022-10-31T17:11:56;0.60;;;0.60;;
6551;SDS011;3309;48.708;9.290;2022-10-31T17:14:22;0.60;;;0.60;;
6551;SDS011;3309;48.708;9.290;2022-10-31T17:16:48;0.60;;;0.60;;
6551;SDS011;3309;48.708;9.290;2022-10-31T17:19:13;0.50;;;0.50;;
6551;SDS011;3309;48.708;9.290;2022-10-31T17:21:39;0.50;;;0.50;;
6551;SDS011;3309;48.708;9.290;2022-10-31T17:24:05;0.50;;;0.50;;
6551;SDS011;3309;48.708;9.290;2022-10-31T17:26:31;0.60;;;0.60;;
6551;SDS011;3309;48.708;9.290;2022-10-31T17:28:57;0.50;;;0.50;;
6551;SDS011;3309;48.708;9.290;2022-10-31T17:31:31;0.40;;;0.40;;
6551;SDS011;3309;48.708;9.290;2022-10-31T17:33:58;0.60;;;0.60;;
6551;SDS011;3309;48.708;9.290;2022-10-31T17:36:24;0.50;;;0.50;;
6551;SDS011;3309;48.708;9.290;2022-10-31T17:38:50;0.50;;;0.50;;
6551;SDS011;3309;48.708;9.290;2022-10-31T17:41:16;0.40;;;0.40;;
6551;SDS011;3309;48.708;9.290;2022-10-31T17:43:41;0.60;;;0.60;;
6551;SDS011;3309;48.708;9.290;2022-10-31T17:46:07;0.57;;;0.57;;